LiveFlight Tracker CHF610





Flight Info CHF610



Flight: CHF610 PIC: Stephen Cao
Departure: NTTO Arrival: NTAA
Registration: B-5291 Aircraft: BOEING 737
Current Alt: 0 FT GS: 0 KT
Last Info: 2017-12-11 04:19:36
Distance: 0 NM Status: Arrived


ACARS Info CHF610



Pilot Flight Time ALT GS Latitude Longitude
CSN774 CHF601 2017-12-07 07:17:00 0 0 -33.3980342946843 -70.792146243333
CSN774 CHF601 2017-12-07 07:15:14 0 14 -33.3979374243951 -70.7881761099472
CSN774 CHF601 2017-12-07 07:13:11 1811 156 -33.3647543362299 -70.7873387030851
CSN774 CHF601 2017-12-07 07:11:10 3510 163 -33.2748680354869 -70.7921484783329
CSN774 CHF601 2017-12-07 07:09:09 4925 190 -33.1739763697017 -70.7974667241912
CSN774 CHF601 2017-12-07 07:07:08 5000 268 -33.218840745613 -70.8569796726138
CSN774 CHF601 2017-12-07 07:05:07 5020 272 -33.3717606915111 -70.8576141436172
CSN774 CHF601 2017-12-07 07:03:05 2251 189 -33.3569059898162 -70.7881097062284
CSN774 CHF601 2017-12-07 07:01:04 4469 266 -33.2246685812582 -70.794736647222
CSN774 CHF601 2017-12-07 06:59:03 6745 278 -33.0741581417867 -70.7872150067062
CSN774 CHF601 2017-12-07 06:57:03 6998 278 -33.0778792476528 -70.8866296357792
CSN774 CHF601 2017-12-07 06:55:01 6988 278 -33.2422516152337 -70.8813195819253
CSN774 CHF601 2017-12-07 06:52:54 6995 278 -33.3989993410817 -70.8767858432388
CSN774 CHF601 2017-12-07 06:50:53 5771 268 -33.5123604826623 -70.8081397332745
CSN774 CHF601 2017-12-07 06:48:51 2687 157 -33.3996319463779 -70.802447603448
CSN774 CHF601 2017-12-07 06:46:50 2730 189 -33.3093798101595 -70.8078756653671
CSN774 CHF601 2017-12-07 06:44:49 4967 222 -33.1944761957714 -70.817385191291
CSN774 CHF601 2017-12-07 06:42:48 5597 247 -33.2115697829533 -70.7519112667544
CSN774 CHF601 2017-12-07 06:40:47 8383 282 -33.1040836701696 -70.8197817321302
CSN774 CHF601 2017-12-07 06:38:46 10249 292 -32.9426539896709 -70.8350775342112
CSN774 CHF601 2017-12-07 06:36:45 12454 301 -32.7751172419415 -70.8392881338699
CSN774 CHF601 2017-12-07 06:34:42 14016 329 -32.6019285932405 -70.8414944943894
CSN774 CHF601 2017-12-07 06:32:38 16096 389 -32.38803742389 -70.8444597784698
CSN774 CHF601 2017-12-07 06:30:32 20220 410 -32.1555700552779 -70.8475556404846
CSN774 CHF601 2017-12-07 06:28:31 23940 437 -31.9191038035528 -70.8506205639865
CSN774 CHF601 2017-12-07 06:26:30 28140 470 -31.6647853411552 -70.8541514411623
CSN774 CHF601 2017-12-07 06:24:29 33241 496 -31.3919025664834 -70.8563165366203
CSN774 CHF601 2017-12-07 06:22:28 36060 519 -31.1258402605251 -70.9804468305163
CSN774 CHF601 2017-12-07 06:20:28 36060 521 -30.8627427796469 -71.1341756066253
CSN774 CHF601 2017-12-07 06:18:25 36053 523 -30.5988391108188 -71.2874006560961
CSN774 CHF601 2017-12-07 06:16:19 36053 525 -30.3248506116986 -71.4468130008684
CSN774 CHF601 2017-12-07 06:14:18 36053 519 -30.0503069123305 -71.5551855502349
CSN774 CHF601 2017-12-07 06:12:09 36053 523 -29.7533570509901 -71.6613885260191
CSN774 CHF601 2017-12-07 06:10:06 36056 527 -29.4722434175607 -71.7616008232588
CSN774 CHF601 2017-12-07 06:08:06 36060 527 -29.1874912815884 -71.8634968688735
CSN774 CHF601 2017-12-07 06:06:03 36063 531 -28.9045930717229 -71.9640056434201
CSN774 CHF601 2017-12-07 06:04:02 36066 529 -28.620845589004 -72.0643495803595
CSN774 CHF601 2017-12-07 06:01:53 36073 531 -28.298581484386 -72.1773674259728
CSN774 CHF601 2017-12-07 05:59:44 36076 531 -27.9904944337628 -72.2844091344944
CSN774 CHF601 2017-12-07 05:57:34 36076 533 -27.6838969679489 -72.3903517360287
CSN774 CHF601 2017-12-07 05:55:24 36079 535 -27.3977766792665 -72.4889151121086
CSN774 CHF601 2017-12-07 05:53:19 36079 535 -27.1039173944634 -72.5897015348845
CSN774 CHF601 2017-12-07 05:51:18 36076 535 -26.8170342351338 -72.6875931856032
CSN774 CHF601 2017-12-07 05:49:18 36076 537 -26.5267153124955 -72.7861275439287
CSN774 CHF601 2017-12-07 05:47:16 36076 537 -26.2358825946158 -72.8843187820841
CSN774 CHF601 2017-12-07 05:45:11 36073 535 -25.9433040237836 -72.9825813912821
CSN774 CHF601 2017-12-07 05:43:10 36073 535 -25.6555673884071 -73.078718035083
CSN774 CHF601 2017-12-07 05:41:10 36073 537 -25.3487187861732 -73.1807090347624
CSN774 CHF601 2017-12-07 05:39:00 36070 537 -25.0582377625599 -73.27675857925
CSN774 CHF601 2017-12-07 05:36:58 36047 538 -24.769192637546 -73.3718651021164
CSN774 CHF601 2017-12-07 05:34:57 36043 538 -24.4798519793597 -73.4665774034796
CSN774 CHF601 2017-12-07 05:32:56 36040 540 -24.1900969806515 -73.5609700951826
CSN774 CHF601 2017-12-07 05:30:55 36040 531 -23.9022484377908 -73.654473272102
CSN774 CHF601 2017-12-07 05:28:55 36037 533 -23.6136746793952 -73.7478431467331
CSN774 CHF601 2017-12-07 05:26:53 36020 531 -23.3256576853896 -73.840619667519
CSN774 CHF601 2017-12-07 05:24:49 36020 531 -23.0369697195768 -73.9331990082075
CSN774 CHF601 2017-12-07 05:22:48 36020 537 -22.7497326288522 -74.0248937082035
CSN774 CHF601 2017-12-07 05:20:47 36020 535 -22.4597917170965 -74.1170455662727
CSN774 CHF601 2017-12-07 05:18:44 36020 535 -22.1697401008202 -74.2088342612207
CSN774 CHF601 2017-12-07 05:16:43 36017 535 -21.8820856426752 -74.2994683631704
CSN774 CHF601 2017-12-07 05:14:42 36017 533 -21.595352228625 -74.3893980457377
CSN774 CHF601 2017-12-07 05:12:34 36004 531 -21.2900375866664 -74.4848027675327
CSN774 CHF601 2017-12-07 05:10:32 36004 529 -21.0044690252088 -74.5736828884558
CSN774 CHF601 2017-12-07 05:08:31 36001 529 -20.7196941838191 -74.6618898223315
CSN774 CHF601 2017-12-07 05:06:31 35991 527 -20.4335786319262 -74.7501955116674
CSN774 CHF601 2017-12-07 05:04:29 35991 527 -20.1469115350847 -74.8383261557229
CSN774 CHF601 2017-12-07 05:02:26 35991 523 -19.8642969131406 -74.9248844426117
CSN774 CHF601 2017-12-07 05:00:25 35988 521 -19.5832372917064 -75.0106451089254
CSN774 CHF601 2017-12-07 04:58:25 35988 521 -19.2831633773824 -75.1018634313196
CSN774 CHF601 2017-12-07 04:56:06 35988 521 -18.9770429778733 -75.1945599131247
CSN774 CHF601 2017-12-07 04:54:03 35988 521 -18.695864207154 -75.2793368059377
CSN774 CHF601 2017-12-07 04:52:02 35988 521 -18.3911837594998 -75.3710814285127
CSN774 CHF601 2017-12-07 04:49:51 35988 523 -18.1079074853017 -75.4518897023692
CSN774 CHF601 2017-12-07 04:47:50 36037 513 -17.8292681587575 -75.5305404650455
CSN774 CHF601 2017-12-07 04:45:50 36096 513 -17.5487424511407 -75.6094795361998
CSN774 CHF601 2017-12-07 04:43:48 36129 513 -17.2706831832047 -75.6874717546358
CSN774 CHF601 2017-12-07 04:41:46 36155 513 -16.9926007421122 -75.765227017109
CSN774 CHF601 2017-12-07 04:39:45 36148 515 -16.7138846754032 -75.842919250221
CSN774 CHF601 2017-12-07 04:37:44 36132 515 -16.434829764805 -75.9204704433137
CSN774 CHF601 2017-12-07 04:35:43 36142 515 -16.1555829325008 -75.9978442675521
CSN774 CHF601 2017-12-07 04:33:42 36122 515 -15.8759308700148 -76.0751037342327
CSN774 CHF601 2017-12-07 04:31:41 36096 515 -15.5963323388692 -76.1521262066733
CSN774 CHF601 2017-12-07 04:29:40 35997 513 -15.3170493953611 -76.2288455436202
CSN774 CHF601 2017-12-07 04:27:39 35984 513 -15.0388960259377 -76.3050410143365
CSN774 CHF601 2017-12-07 04:25:36 35978 511 -14.7517491301911 -76.3834499743844
CSN774 CHF601 2017-12-07 04:23:33 35971 509 -14.4725312660445 -76.4592380628704
CSN774 CHF601 2017-12-07 04:21:31 35968 507 -14.2011099376181 -76.5488491435434
CSN774 CHF601 2017-12-07 04:19:31 35965 505 -13.9270147878603 -76.6809228709497
CSN774 CHF601 2017-12-07 04:17:21 35981 503 -13.6706000823562 -76.8041605266734
CSN774 CHF601 2017-12-07 04:15:21 35988 503 -13.4129419247075 -76.9276922726476
CSN774 CHF601 2017-12-07 04:13:18 35971 502 -13.1573797490745 -77.0499269290136
CSN774 CHF601 2017-12-07 04:11:17 35965 502 -12.9021007090366 -77.1717433381999
CSN774 CHF601 2017-12-07 04:09:16 35965 502 -12.6453824123503 -77.2939689897997
CSN774 CHF601 2017-12-07 04:07:14 35961 500 -12.4197549338847 -77.4011648244508
CSN774 CHF601 2017-12-07 04:05:12 35961 502 -12.1649732289084 -77.5219495105331
CSN774 CHF601 2017-12-07 04:03:11 35036 498 -11.9108358127238 -77.6421466545738
CSN774 CHF601 2017-12-07 04:01:10 33967 496 -11.6574932281718 -77.7617639610572
CSN774 CHF601 2017-12-07 03:59:07 33970 496 -11.4003248366012 -77.8829834854122
CSN774 CHF601 2017-12-07 03:57:07 33973 500 -11.1454915056598 -78.0028012338839
CSN774 CHF601 2017-12-07 03:55:04 33973 498 -10.8917133294416 -78.1219101799321
CSN774 CHF601 2017-12-07 03:53:03 33976 496 -10.6220387610505 -78.2482299535502
CSN774 CHF601 2017-12-07 03:50:55 33980 496 -10.3671785883486 -78.3673864494141
CSN774 CHF601 2017-12-07 03:48:50 33980 494 -10.1106396112862 -78.4871030319487
CSN774 CHF601 2017-12-07 03:46:50 34065 494 -9.85640231636774 -78.6057496190278
CSN774 CHF601 2017-12-07 03:44:48 34065 494 -9.59661067129132 -78.7056253667424
CSN774 CHF601 2017-12-07 03:42:45 34058 490 -9.3301664745584 -78.7777333320627
CSN774 CHF601 2017-12-07 03:40:44 34049 486 -9.06587449886552 -78.8491418491774
CSN774 CHF601 2017-12-07 03:38:44 34026 482 -8.80404414643749 -78.9197590455913
CSN774 CHF601 2017-12-07 03:36:43 33990 480 -8.5391042761449 -78.9911613043797
CSN774 CHF601 2017-12-07 03:34:40 33963 476 -8.27968604578789 -79.0613165289171
CSN774 CHF601 2017-12-07 03:32:38 33973 478 -8.01958466399009 -79.1211750147556
CSN774 CHF601 2017-12-07 03:30:37 34032 476 -7.75349987238532 -79.1551284090401
CSN774 CHF601 2017-12-07 03:28:37 34094 474 -7.48641838728409 -79.1891588313755
CSN774 CHF601 2017-12-07 03:26:35 34111 472 -7.22329722256322 -79.2226418762935
CSN774 CHF601 2017-12-07 03:24:33 34085 468 -6.96117468904781 -79.2559587175154
CSN774 CHF601 2017-12-07 03:22:32 34042 467 -6.70042124522322 -79.2890641385724
CSN774 CHF601 2017-12-07 03:20:32 34035 465 -6.43927979542889 -79.3221812888338
CSN774 CHF601 2017-12-07 03:18:29 34042 463 -6.18116880230009 -79.3548731932544
CSN774 CHF601 2017-12-07 03:16:28 34062 467 -5.9223426591499 -79.3876401187765
CSN774 CHF601 2017-12-07 03:14:28 34072 465 -5.66304091198788 -79.4204277548952
CSN774 CHF601 2017-12-07 03:12:26 34075 463 -5.40467906172675 -79.4530665156641
CSN774 CHF601 2017-12-07 03:10:25 34091 461 -5.14780691610076 -79.4854894826319
CSN774 CHF601 2017-12-07 03:08:24 32740 463 -4.89117633116813 -79.5178491946193
CSN774 CHF601 2017-12-07 03:06:23 30633 470 -4.63125286945354 -79.5506020138475
CSN774 CHF601 2017-12-07 03:04:20 28435 478 -4.35810407828427 -79.5849973064651
CSN774 CHF601 2017-12-07 03:02:03 26516 480 -4.05665069569246 -79.6229473485161
CSN774 CHF601 2017-12-07 03:00:02 24961 472 -3.78852676851935 -79.6566766285102
CSN774 CHF601 2017-12-07 02:58:00 23182 463 -3.52791623581333 -79.6894351307682
CSN774 CHF601 2017-12-07 02:55:58 21050 447 -3.27441041320689 -79.7212694907397
CSN774 CHF601 2017-12-07 02:53:58 18258 428 -3.03053187194636 -79.751774479623
CSN774 CHF601 2017-12-07 02:51:56 14839 404 -2.79877461282353 -79.7809504882852
CSN774 CHF601 2017-12-07 02:49:55 11509 363 -2.58194089121202 -79.8189580884922
CSN774 CHF601 2017-12-07 02:47:55 7986 284 -2.39704963143819 -79.8568331877951
CSN774 CHF601 2017-12-07 02:45:41 2959 243 -2.25026644598307 -79.9024437587074
CSN774 CHF601 2017-12-07 02:43:31 0 68 -2.15114710436052 -79.8798206259109
CSN774 CHF601 2017-12-07 02:41:23 0 0 -2.14844064835659 -79.8782326768302
CSN774 CHF601 2017-12-07 02:39:23 0 0 -2.14843859121254 -79.8782314206216
CSN774 CHF601 2017-12-07 02:37:21 0 16 -2.15068057016121 -79.8811758174996
CSN774 CHF601 2017-12-07 02:35:21 0 2 -2.15754949214101 -79.8852986111907
CSN774 CHF601 2017-12-07 02:33:16 0 2 -2.15786848660364 -79.8855129197608
CSN774 CHF601 2017-12-07 02:31:14 0 0 -2.15700154720403 -79.886088182282
CSN774 CHF601 2017-12-07 02:29:13 0 0 -2.15700154720403 -79.886088182282
CSN774 CHF601 2017-12-07 02:27:12 0 0 -2.15700154720403 -79.886088182282
CSN774 CHF601 2017-12-07 02:25:05 0 0 -2.15700154720403 -79.886088182282
CSN774 CHF601 2017-12-07 02:23:03 0 0 -2.15700154720403 -79.886088182282
CSN774 CHF601 2017-12-07 02:21:02 0 0 -2.15700154720403 -79.886088182282
CSN774 CHF601 2017-12-07 02:16:57 0 0 -2.15700154720442 -79.8860881822836